Station: Leinster  

  Atmospheric Gas Attenuation - ITU Rec 676-11   ----------------- dB/100km -----------------
Date Time Temp RH % AH g/m3 Dew Point Wind Direction Speed kph Gust kph Barometer mB Rainfall Since 9am 24GHz 47GHz 76GHz 122GHz 134GHz 241GHz
08/05 09:20 15.5 52 6.87 5.7 19 24 1029 0 15.8 23.3 33.0 86.1 75.7 258.9
08/05 09:10 15 53 6.8 5.5 32 37 1029 0 15.7 23.3 33.0 86.0 75.3 257.5
08/05 09:00 14.9 54 6.88 5.7 28 39 1028.6 0 15.9 23.5 33.3 86.8 76.4 261.2
08/05 08:50 14.4 55 6.8 5.5 30 35 1028.9 0 15.7 23.5 33.2 86.6 75.9 259.4
08/05 08:40 14.4 56 6.92 5.7 26 33 1028.9 0 16.0 23.7 33.7 87.8 77.4 264.6
08/05 08:30 14 58 7 5.9 24 35 1028.6 0 16.2 23.9 34.1 89.0 78.7 269.4
08/05 08:20 13.5 60 7.02 5.9 22 28 1028.9 0 16.2 24.1 34.4 89.8 79.5 272.0
08/05 08:10 12.9 63 7.1 6 24 28 1028.8 0 16.4 24.3 35.0 91.3 81.1 277.7
08/05 08:00 12.8 65 7.28 6.4 20 35 1028.5 0 16.8 24.6 35.7 93.3 83.5 286.0
08/05 07:50 12.2 68 7.34 6.5 19 26 1028.8 0 17.0 24.9 36.2 94.6 85.0 291.0
08/05 07:40 11.6 72 7.48 6.7 19 20 1028.8 0 17.3 25.3 37.1 96.9 87.5 299.7
08/05 07:30 10.8 77 7.61 6.9 15 20 1028.4 0 17.6 25.7 37.9 99.2 90.1 308.7
08/05 07:20 10.3 79 7.57 6.8 13 15 1028.6 0 17.5 25.8 38.0 99.4 90.1 308.9
08/05 07:10 9.9 81 7.56 6.8 13 15 1028.5 0 17.5 25.9 38.2 99.8 90.4 309.9
08/05 07:00 9.6 83 7.61 6.9 13 17 1028.1 0 17.7 26.1 38.5 100.7 91.4 313.4
08/05 06:50 9.1 85 7.54 6.7 11 13 1028.4 0 17.5 26.1 38.5 100.6 91.1 312.1
08/05 06:40 8.8 85 7.4 6.4 11 11 1028.2 0 17.2 25.9 38.0 99.4 89.5 306.6
08/05 06:30 8.7 85 7.35 6.3 11 13 1028 0 17.1 25.9 37.9 99.0 88.9 304.5
08/05 06:20 8.7 85 7.35 6.3 9 11 1028.1 0 17.1 25.9 37.9 99.0 89.0 304.5
08/05 06:10 8.7 84 7.27 6.2 9 11 1028.1 0 17.0 25.8 37.5 98.1 87.9 300.7
08/05 06:00 8.8 83 7.23 6.1 11 15 1027.9 0 16.9 25.7 37.3 97.5 87.2 298.4
08/05 05:50 8.9 82 7.19 6 11 13 1028 0 16.8 25.6 37.1 97.0 86.5 296.1
08/05 05:40 8.8 82 7.14 5.9 11 13 1027.9 0 16.7 25.5 36.9 96.5 86.0 294.1
08/05 05:30 8.7 81 7.01 5.6 9 13 1027.6 0 16.4 25.3 36.4 95.2 84.3 288.3
08/05 05:20 8.8 81 7.05 5.7 11 11 1027.8 0 16.5 25.4 36.6 95.5 84.7 289.8
08/05 05:10 8.8 80 6.97 5.5 9 11 1027.6 0 16.3 25.2 36.2 94.6 83.7 286.0
08/05 05:00 8.9 79 6.92 5.5 9 13 1027.3 0 16.2 25.1 36.0 93.9 82.9 283.2
08/05 04:50 9 79 6.97 5.6 9 11 1027.5 0 16.3 25.2 36.1 94.4 83.4 285.3
08/05 04:40 9.1 78 6.92 5.5 9 9 1027.4 0 16.2 25.0 35.9 93.7 82.7 282.5
08/05 04:30 9.2 77 6.88 5.4 9 11 1027.1 0 16.1 24.9 35.7 93.1 82.0 280.2
08/05 04:20 9.4 77 6.97 5.6 9 11 1027.3 0 16.3 25.0 35.9 93.9 83.0 283.8
08/05 04:10 9.4 77 6.97 5.6 7 9 1027.3 0 16.3 25.0 35.9 93.9 83.0 283.8
08/05 04:00 9.4 77 6.97 5.6 7 9 1027.1 0 16.3 25.0 35.9 93.9 83.0 283.7
08/05 03:50 9.6 76 6.96 5.6 9 9 1027.4 0 16.3 25.0 35.8 93.6 82.7 282.6
08/05 03:40 9.8 75 6.96 5.6 9 9 1027.4 0 16.3 24.9 35.7 93.3 82.4 281.9
08/05 03:30 10 74 6.96 5.6 9 11 1027.1 0 16.2 24.8 35.6 93.0 82.2 281.1
08/05 03:20 10.2 74 7.04 5.8 9 11 1027.3 0 16.4 24.9 35.9 93.7 83.1 284.1
08/05 03:10 10.2 74 7.04 5.8 9 11 1027.3 0 16.4 24.9 35.9 93.7 83.1 284.1
08/05 03:00 10.2 73 6.95 5.6 7 9 1027.1 0 16.2 24.8 35.5 92.7 81.9 279.9
08/05 02:50 10.4 72 6.94 5.6 7 9 1027.4 0 16.2 24.7 35.4 92.4 81.5 278.8
08/05 02:40 10.6 72 7.03 5.8 7 9 1027.5 0 16.4 24.8 35.7 93.1 82.5 282.3
08/05 02:30 10.8 71 7.02 5.8 7 9 1027.4 0 16.3 24.7 35.5 92.8 82.2 281.1
08/05 02:20 11 70 7.01 5.7 7 9 1027.6 0 16.3 24.7 35.4 92.5 81.9 280.0
08/05 02:10 11.2 69 7 5.7 11 11 1027.6 0 16.3 24.6 35.3 92.1 81.5 278.8
08/05 02:00 11.4 68 6.98 5.7 11 13 1027.4 0 16.2 24.5 35.1 91.7 81.0 277.2
08/05 01:50 11.6 67 6.96 5.7 11 11 1027.6 0 16.2 24.4 34.9 91.2 80.6 275.6
08/05 01:40 11.9 67 7.1 6 13 15 1027.6 0 16.5 24.6 35.4 92.4 82.1 280.9
08/05 01:30 12 66 7.03 5.9 13 19 1027.4 0 16.3 24.4 35.0 91.5 81.1 277.3
08/05 01:20 12.2 65 7.01 5.8 15 17 1027.6 0 16.3 24.3 34.9 91.1 80.6 275.8
08/05 01:10 12.3 64 6.95 5.7 13 15 1027.6 0 16.1 24.2 34.6 90.3 79.7 272.7
08/05 01:00 12.5 64 7.04 5.9 15 22 1027.4 0 16.3 24.3 34.9 91.0 80.7 276.0
08/05 00:50 12.6 63 6.97 5.8 17 22 1027.6 0 16.2 24.2 34.5 90.2 79.7 272.6
08/05 00:40 12.8 62 6.95 5.7 17 20 1027.5 0 16.1 24.1 34.4 89.8 79.2 271.0
08/05 00:30 12.9 61 6.88 5.6 19 26 1027.4 0 16.0 23.9 34.1 88.9 78.2 267.5
08/05 00:20 13 61 6.92 5.7 19 20 1027.6 0 16.0 24.0 34.2 89.2 78.6 269.0
08/05 00:10 13 61 6.92 5.7 17 19 1027.6 0 16.0 24.0 34.2 89.2 78.6 269.0
08/05 00:00 13.2 60 6.89 5.6 19 26 1027.3 0 16.0 23.9 34.0 88.7 78.1 266.9
07/05 23:50 13.4 59 6.86 5.6 19 24 1027.5 0 15.9 23.8 33.8 88.2 77.5 265.0
07/05 23:40 13.4 59 6.86 5.6 19 20 1027.5 0 15.9 23.8 33.8 88.2 77.5 265.0
07/05 23:30 13.4 59 6.86 5.6 17 24 1027.4 0 15.9 23.8 33.8 88.2 77.5 265.0
07/05 23:20 13.6 58 6.83 5.5 17 20 1027.6 0 15.8 23.7 33.6 87.7 76.9 263.0
07/05 23:10 13.6 58 6.83 5.5 15 17 1027.5 0 15.8 23.7 33.6 87.6 76.9 263.0
07/05 23:00 13.6 58 6.83 5.5 15 24 1027.3 0 15.8 23.7 33.6 87.6 76.9 263.0
07/05 22:50 13.6 59 6.94 5.7 17 19 1027.5 0 16.1 23.9 34.0 88.8 78.3 267.9
07/05 22:40 13.6 59 6.94 5.7 15 17 1027.5 0 16.1 23.9 34.0 88.8 78.3 267.9
07/05 22:30 13.7 58 6.87 5.6 15 20 1027.3 0 15.9 23.7 33.7 87.9 77.3 264.4
07/05 22:20 13.9 58 6.95 5.8 17 19 1027.4 0 16.1 23.8 33.9 88.5 78.1 267.3
07/05 22:10 14 57 6.88 5.6 15 17 1027.4 0 15.9 23.7 33.6 87.7 77.1 263.9
07/05 22:00 14.2 57 6.96 5.8 15 20 1027.2 0 16.1 23.7 33.8 88.3 77.9 266.7
07/05 21:50 14.3 56 6.88 5.7 17 20 1027.2 0 15.9 23.6 33.5 87.4 76.8 262.8
07/05 21:40 14.4 56 6.92 5.7 17 20 1027.2 0 16.0 23.6 33.6 87.7 77.2 264.3
07/05 21:30 14.6 55 6.88 5.7 17 20 1027 0 15.9 23.5 33.3 87.0 76.5 261.8
07/05 21:20 14.7 55 6.92 5.8 17 20 1027.1 0 16.0 23.5 33.5 87.3 76.9 263.3
07/05 21:10 14.9 54 6.88 5.7 19 20 1027 0 15.9 23.4 33.2 86.7 76.2 260.8
07/05 21:00 15 54 6.92 5.8 17 22 1026.8 0 16.0 23.4 33.3 87.0 76.6 262.2
07/05 20:50 15.1 53 6.84 5.6 17 20 1027.1 0 15.8 23.3 33.0 86.1 75.6 258.5
07/05 20:40 15.3 52 6.79 5.5 17 20 1026.9 0 15.7 23.2 32.7 85.4 74.8 255.7
07/05 20:30 15.4 52 6.83 5.6 15 20 1026.6 0 15.7 23.2 32.8 85.6 75.1 257.0
07/05 20:20 15.7 51 6.82 5.6 13 15 1026.8 0 15.7 23.1 32.7 85.2 74.7 255.7
07/05 20:10 15.9 50 6.77 5.5 19 22 1026.7 0 15.6 23.0 32.4 84.5 73.9 252.9
07/05 20:00 16.1 50 6.85 5.7 20 28 1026.4 0 15.8 23.0 32.6 85.1 74.7 255.6
07/05 19:50 16.3 49 6.8 5.6 20 24 1026.6 0 15.7 22.9 32.3 84.4 73.9 252.9
07/05 19:40 16.5 48 6.74 5.5 24 30 1026.4 0 15.5 22.8 32.0 83.6 73.0 249.7
07/05 19:30 16.7 47 6.68 5.3 24 32 1026.1 0 15.4 22.6 31.7 82.8 72.1 246.5
07/05 19:20 16.8 47 6.72 5.4 28 35 1026.2 0 15.5 22.7 31.8 83.0 72.5 247.9
07/05 19:10 17 46 6.66 5.3 20 24 1026.1 0 15.3 22.5 31.5 82.3 71.6 244.8
07/05 19:00 17.2 45 6.59 5.2 22 30 1025.9 0 15.2 22.4 31.2 81.4 70.6 241.2
07/05 18:50 17.3 44 6.48 4.9 22 28 1026.1 0 14.9 22.2 30.8 80.2 69.2 236.4
07/05 18:40 17.5 43 6.41 4.8 22 24 1026 0 14.8 22.0 30.5 79.4 68.2 232.9
07/05 18:30 17.6 43 6.45 4.9 20 32 1025.8 0 14.9 22.1 30.6 79.6 68.6 234.2
07/05 18:20 18 42 6.45 4.9 20 26 1025.9 0 14.8 22.0 30.4 79.3 68.2 233.1
07/05 18:10 18.1 42 6.49 5 17 24 1025.8 0 14.9 22.0 30.5 79.5 68.6 234.4
07/05 18:00 18.3 41 6.41 4.8 20 32 1025.4 0 14.8 21.8 30.1 78.5 67.5 230.5
07/05 17:50 18.4 40 6.29 4.6 22 24 1025.5 0 14.5 21.6 29.7 77.3 66.0 225.4
07/05 17:40 18.5 40 6.33 4.7 22 24 1025.4 0 14.6 21.7 29.8 77.6 66.4 226.7
07/05 17:30 18.8 40 6.44 4.9 26 35 1025 0 14.8 21.7 30.1 78.3 67.4 230.3
07/05 17:20 18.9 39 6.32 4.7 30 35 1025.2 0 14.5 21.6 29.6 77.1 65.9 225.2
07/05 17:10 19.1 39 6.39 4.8 26 32 1025.2 0 14.7 21.6 29.8 77.6 66.6 227.5
07/05 17:00 19.2 39 6.43 4.9 24 37 1024.7 0 14.8 21.6 29.9 77.8 66.9 228.7
07/05 16:50 19.6 38 6.41 4.9 26 28 1025 0 14.7 21.5 29.7 77.3 66.4 226.8

Last Refresh: 08-May-2026 11:03:38

Bureau of Meteorology